Архив погоды в Лешуконском

Метеограмма Лешуконское
Среда, 22 Мая
Время местн. Темп Ветер Видим Явления Облачность нижн/средн/верх Атм. давл. Влжн Точка росы ВНГО R Сост. почвы Tg s
Напр Скр Прв ур.ст ур.м изм
21:00 +3.1° С 6 - 50 км - преимущественно облачно 752 759 +0.4 54% -5.2° 1.5 км - - - -
18:00 +5.9° З,С-З 4 - 50 км - преимущественно облачно 752 758 +0.2 60% -1.3° 1 км - - - -
15:00 +8.6° С,С-З 6 - 50 км - преимущественно облачно 752 758 -0.2 55% +0.1° 1.5 км - - - -
12:00 +10.4° В 1 - 50 км - преимущественно облачно 752 758 -0.8 42% -2° 1.5 км - - - -
09:00 +7.9° В 2 - 50 км - преимущественно облачно 753 759 -1.1 54% -0.9° - - - - -
06:00 +5.2° В 1 - 50 км - преимущественно облачно 754 760 -1.2 63% -1.3° - - Сухая (без трещин) - -
03:00 +3.2° штиль 0 - 50 км - облачно 755 762 -0.8 76% -0.6° - - - - -
00:00 +3.6° штиль 0 - 50 км - облачно 756 762 -1 73% -0.7° - - - - -
Вторник, 21 Мая
Время местн. Темп Ветер Видим Явления Облачность нижн/средн/верх Атм. давл. Влжн Точка росы ВНГО R Сост. почвы Tg s
Напр Скр Прв ур.ст ур.м изм
21:00 +8.8° штиль 0 - 50 км - переменная облачность 757 763 -0.7 38% -4.7° - - - - -
18:00 +10.8° С 2 - 50 км - ясно 757 764 -0.9 29% -6.3° более 2.5 км - - - -
15:00 +10.6° С 4 - 50 км - переменная облачность 758 765 -1 97% +10.2° более 2.5 км - - - -
12:00 +8.1° С-З 2 - 50 км - переменная облачность 759 766 -0.7 36% -5.9° более 2.5 км - - - -
09:00 +5.1° С-З 1 - 50 км - переменная облачность 760 767 -0.3 51% -4.2° более 2.5 км - - - -
06:00 +1.1° С 2 - 50 км - ясно 760 767 +0.2 81% -1.8° более 2.5 км - Влажная (без луж) - -
03:00 -0.8° С 1 - 50 км - ясно 760 767 0 73% -5° более 2.5 км - - - -
00:00 +2° С 1 - 50 км - переменная облачность 760 767 +0.6 69% -3° более 2.5 км - - - -
Понедельник, 20 Мая
Время местн. Темп Ветер Видим Явления Облачность нижн/средн/верх Атм. давл. Влжн Точка росы ВНГО R Сост. почвы Tg s
Напр Скр Прв ур.ст ур.м изм
21:00 +6.4° С 3 - 50 км - переменная облачность 759 766 -0.5 48% -3.8° более 2.5 км - - - -
18:00 +9.2° С 4 10 более 50 км - облачно 760 766 -0.8 32% -6.6° 1 км 0 - - -
15:00 +8.3° С-З 5 - 50 км - облачно 761 767 -0.8 39% -4.7° 1 км - - - -
12:00 +2.9° З,С-З 4 - 20 км - облачно 761 768 +0.5 71% -1.9° 1 км - - - -
09:00 +1.5° С-З 3 - 20 км - преимущественно облачно 761 768 +0.8 70% -3.3° 600 м - - - -
06:00 +0.3° С 4 - 10 км - преимущественно облачно 760 767 +0.5 84% -2° 600 м - Влажная (без луж) - -
03:00 С 5 - 10 км - облачно 759 766 +0.8 86% -2.1° 300 м - - - -
00:00 +1.3° С 4 - 50 км - облачно 759 766 +0.4 79% -1.9° - - - - -
Воскресенье, 19 Мая
Время местн. Темп Ветер Видим Явления Облачность нижн/средн/верх Атм. давл. Влжн Точка росы ВНГО R Сост. почвы Tg s
Напр Скр Прв ур.ст ур.м изм
21:00 +5.8° С,С-З 2 - 50 км - облачно 758 765 +0.2 56% -2.2° более 2.5 км - - - -
18:00 +8.3° С-З 4 - 50 км - облачно 758 765 +0.5 44% -3.1° более 2.5 км - - - -